createdAt,value
2018-10-03T00:06:52.000Z,18.74
2018-10-03T00:16:52.000Z,18.71
2018-10-03T00:26:52.000Z,18.68
2018-10-03T00:36:52.000Z,18.63
2018-10-03T00:46:52.000Z,18.61
2018-10-03T00:56:52.000Z,18.58
2018-10-03T01:06:52.000Z,18.56
2018-10-03T01:16:52.000Z,18.53
2018-10-03T01:26:52.000Z,18.51
2018-10-03T01:36:52.000Z,18.51
2018-10-03T01:46:52.000Z,18.48
2018-10-03T01:56:54.000Z,18.47
2018-10-03T02:06:52.000Z,18.46
2018-10-03T02:16:52.000Z,18.45
2018-10-03T02:26:52.000Z,18.44
2018-10-03T02:36:52.000Z,18.43
2018-10-03T02:46:52.000Z,18.41
2018-10-03T02:56:52.000Z,18.41
2018-10-03T03:06:52.000Z,18.43
2018-10-03T03:16:52.000Z,18.41
2018-10-03T03:26:52.000Z,18.43
2018-10-03T03:36:52.000Z,18.41
2018-10-03T03:46:52.000Z,18.43
2018-10-03T03:56:52.000Z,18.42
2018-10-03T04:06:52.000Z,18.44
2018-10-03T04:16:52.000Z,18.45
2018-10-03T04:26:52.000Z,18.43
2018-10-03T04:36:52.000Z,18.43
2018-10-03T04:46:52.000Z,18.43
2018-10-03T04:56:53.000Z,18.43
2018-10-03T05:06:53.000Z,18.42
2018-10-03T05:16:53.000Z,18.42
2018-10-03T05:26:53.000Z,18.41
2018-10-03T05:36:53.000Z,18.43
2018-10-03T05:46:53.000Z,18.43
2018-10-03T05:56:53.000Z,18.44
2018-10-03T06:06:53.000Z,18.46
2018-10-03T06:16:53.000Z,18.48
2018-10-03T06:26:53.000Z,18.49
2018-10-03T06:36:53.000Z,18.49
2018-10-03T06:46:53.000Z,18.52
2018-10-03T06:56:53.000Z,18.53
2018-10-03T07:06:53.000Z,18.57
2018-10-03T07:16:53.000Z,18.6
2018-10-03T07:26:53.000Z,18.63
2018-10-03T07:36:53.000Z,18.67
2018-10-03T07:46:53.000Z,18.75
2018-10-03T07:56:53.000Z,18.83
2018-10-03T08:06:53.000Z,18.91
2018-10-03T08:16:53.000Z,18.95
2018-10-03T08:26:53.000Z,19.01
2018-10-03T08:36:53.000Z,19.08
2018-10-03T08:46:53.000Z,19.15
2018-10-03T08:56:53.000Z,19.3
2018-10-03T09:06:53.000Z,19.42
2018-10-03T09:16:53.000Z,19.53
2018-10-03T09:26:53.000Z,19.74
2018-10-03T09:36:53.000Z,19.91
2018-10-03T09:46:53.000Z,20.07
2018-10-03T09:56:53.000Z,20.22
2018-10-03T10:06:53.000Z,20.36
2018-10-03T10:16:53.000Z,20.5
2018-10-03T10:26:57.000Z,20.46
2018-10-03T10:36:53.000Z,20.74
2018-10-03T10:46:53.000Z,20.79
2018-10-03T10:56:53.000Z,20.8
2018-10-03T11:06:53.000Z,20.73
2018-10-03T11:16:53.000Z,20.79
2018-10-03T11:26:53.000Z,20.73
2018-10-03T11:36:53.000Z,20.81
2018-10-03T11:46:53.000Z,20.74
2018-10-03T11:56:53.000Z,20.69
2018-10-03T12:06:53.000Z,20.75
2018-10-03T12:16:55.000Z,20.78
2018-10-03T12:26:53.000Z,20.76
2018-10-03T12:36:53.000Z,20.88
2018-10-03T12:46:53.000Z,20.89
2018-10-03T12:56:53.000Z,20.84
2018-10-03T13:06:53.000Z,20.87
2018-10-03T13:16:54.000Z,20.81
2018-10-03T13:26:54.000Z,20.73
2018-10-03T13:36:54.000Z,20.86
2018-10-03T13:46:54.000Z,20.75
2018-10-03T13:56:54.000Z,20.76
2018-10-03T14:06:54.000Z,20.77
2018-10-03T14:16:54.000Z,20.77
2018-10-03T14:26:54.000Z,20.72
2018-10-03T14:36:54.000Z,20.73
2018-10-03T14:46:54.000Z,20.72
2018-10-03T14:56:54.000Z,20.68
2018-10-03T15:06:54.000Z,20.62
2018-10-03T15:16:54.000Z,20.6
2018-10-03T15:26:54.000Z,20.57
2018-10-03T15:36:54.000Z,20.53
2018-10-03T15:46:54.000Z,20.48
2018-10-03T15:56:54.000Z,20.46
2018-10-03T16:06:54.000Z,20.42
2018-10-03T16:16:55.000Z,20.4
2018-10-03T16:26:54.000Z,20.36
2018-10-03T16:36:54.000Z,20.32
2018-10-03T16:46:54.000Z,20.27
2018-10-03T16:56:54.000Z,20.24
2018-10-03T17:06:54.000Z,20.19
2018-10-03T17:16:54.000Z,20.17
2018-10-03T17:26:54.000Z,20.14
2018-10-03T17:36:54.000Z,20.09
2018-10-03T17:46:54.000Z,20.06
2018-10-03T17:56:54.000Z,20.05
2018-10-03T18:06:54.000Z,20.01
2018-10-03T18:16:55.000Z,19.98
2018-10-03T18:26:54.000Z,19.97
2018-10-03T18:36:54.000Z,19.93
2018-10-03T18:46:55.000Z,20.05
2018-10-03T18:56:54.000Z,20.12
2018-10-03T19:06:54.000Z,20.08
2018-10-03T19:16:55.000Z,20.1
2018-10-03T19:26:54.000Z,20.1
2018-10-03T19:36:54.000Z,20.15
2018-10-03T19:46:54.000Z,20.11
2018-10-03T19:56:54.000Z,20.14
2018-10-03T20:06:54.000Z,20.14
2018-10-03T20:16:54.000Z,20.14
2018-10-03T20:26:54.000Z,20.16
2018-10-03T20:36:54.000Z,20.15
2018-10-03T20:46:54.000Z,20.17
2018-10-03T20:56:54.000Z,20.17
2018-10-03T21:06:54.000Z,20.17
2018-10-03T21:16:54.000Z,20.16
2018-10-03T21:26:54.000Z,20.18
2018-10-03T21:36:54.000Z,20.11
2018-10-03T21:46:56.000Z,20.04
2018-10-03T21:56:55.000Z,19.98
2018-10-03T22:06:55.000Z,19.88
2018-10-03T22:16:56.000Z,19.79
2018-10-03T22:26:56.000Z,19.77
2018-10-03T22:36:58.000Z,19.74
2018-10-03T22:46:55.000Z,19.69
2018-10-03T22:56:55.000Z,19.63
2018-10-03T23:06:55.000Z,19.59
2018-10-03T23:16:55.000Z,19.54
2018-10-03T23:26:55.000Z,19.52
2018-10-03T23:36:55.000Z,19.49
2018-10-03T23:46:55.000Z,19.46
2018-10-03T23:56:55.000Z,19.43
